createdAt,value
2023-03-04T00:00:02.132Z,15.53
2023-03-04T00:02:29.175Z,14.50
2023-03-04T00:04:55.962Z,15.23
2023-03-04T00:07:23.046Z,15.23
2023-03-04T00:09:49.885Z,15.63
2023-03-04T00:12:16.770Z,16.27
2023-03-04T00:14:47.100Z,15.67
2023-03-04T00:17:14.341Z,16.33
2023-03-04T00:19:41.169Z,16.87
2023-03-04T00:22:08.072Z,17.10
2023-03-04T00:24:35.314Z,16.33
2023-03-04T00:27:02.144Z,14.90
2023-03-04T00:29:29.025Z,15.43
2023-03-04T00:31:55.909Z,15.97
2023-03-04T00:34:22.996Z,15.47
2023-03-04T00:36:49.877Z,14.43
2023-03-04T00:39:16.817Z,15.83
2023-03-04T00:41:45.106Z,15.63
2023-03-04T00:44:12.352Z,15.80
2023-03-04T00:46:39.566Z,16.10
2023-03-04T00:49:06.422Z,16.03
2023-03-04T00:51:33.637Z,17.00
2023-03-04T00:54:01.084Z,15.70
2023-03-04T00:56:28.278Z,16.47
2023-03-04T00:58:55.496Z,16.13
2023-03-04T01:01:22.384Z,15.67
2023-03-04T01:03:49.563Z,16.57
2023-03-04T01:06:16.559Z,15.97
2023-03-04T01:08:43.479Z,16.40
2023-03-04T01:11:10.789Z,16.17
2023-03-04T01:13:38.015Z,16.43
2023-03-04T01:16:05.525Z,17.03
2023-03-04T01:18:32.972Z,15.40
2023-03-04T01:20:59.987Z,17.93
2023-03-04T01:23:26.902Z,17.33
2023-03-04T01:25:53.865Z,17.10
2023-03-04T01:28:20.792Z,18.73
2023-03-04T01:30:47.705Z,18.40
2023-03-04T01:33:14.652Z,17.20
2023-03-04T01:35:41.593Z,18.67
2023-03-04T01:38:08.531Z,16.80
2023-03-04T01:40:35.435Z,16.50
2023-03-04T01:43:02.304Z,15.00
2023-03-04T01:45:30.251Z,14.67
2023-03-04T01:47:57.178Z,14.87
2023-03-04T01:50:35.721Z,15.60
2023-03-04T01:53:03.478Z,15.27
2023-03-04T01:55:31.185Z,15.17
2023-03-04T01:57:58.160Z,14.53
2023-03-04T02:00:33.898Z,13.63
2023-03-04T02:03:21.087Z,13.63
2023-03-04T02:05:52.991Z,13.60
2023-03-04T02:08:23.009Z,12.67
2023-03-04T02:10:51.214Z,13.13
2023-03-04T02:13:18.429Z,12.67
2023-03-04T02:15:46.484Z,12.43
2023-03-04T02:18:18.046Z,13.80
2023-03-04T02:21:15.396Z,13.73
2023-03-04T02:24:07.126Z,12.67
2023-03-04T02:26:35.246Z,12.17
2023-03-04T02:29:03.632Z,13.03
2023-03-04T02:31:32.269Z,12.67
2023-03-04T02:34:02.599Z,12.80
2023-03-04T02:36:30.019Z,13.80
2023-03-04T02:39:07.186Z,13.80
2023-03-04T02:41:34.843Z,13.97
2023-03-04T02:44:01.642Z,14.27
2023-03-04T02:46:28.565Z,14.47
2023-03-04T02:48:55.553Z,14.80
2023-03-04T02:51:22.458Z,14.30
2023-03-04T02:53:49.292Z,13.97
2023-03-04T02:56:16.774Z,14.83
2023-03-04T02:58:43.585Z,15.00
2023-03-04T03:01:10.487Z,15.23
2023-03-04T03:03:37.303Z,14.97
2023-03-04T03:06:04.425Z,14.00
2023-03-04T03:08:31.254Z,15.67
2023-03-04T03:10:58.080Z,15.53
2023-03-04T03:13:24.920Z,15.47
2023-03-04T03:15:51.812Z,15.20
2023-03-04T03:18:18.762Z,15.77
2023-03-04T03:20:45.602Z,15.07
2023-03-04T03:23:12.771Z,15.33
2023-03-04T03:25:39.581Z,14.93
2023-03-04T03:28:06.587Z,16.57
2023-03-04T03:30:33.625Z,15.23
2023-03-04T03:33:01.589Z,15.30
2023-03-04T03:35:29.899Z,14.97
2023-03-04T03:37:56.805Z,15.57
2023-03-04T03:40:23.702Z,15.47
2023-03-04T03:42:50.575Z,15.10
2023-03-04T03:45:18.819Z,15.07
2023-03-04T03:47:45.888Z,15.17
2023-03-04T03:50:12.803Z,15.57
2023-03-04T03:52:39.587Z,15.93
2023-03-04T03:55:06.841Z,15.77
2023-03-04T03:57:33.700Z,15.07
2023-03-04T04:00:00.501Z,15.63
2023-03-04T04:02:27.439Z,16.20
2023-03-04T04:04:54.415Z,16.43
2023-03-04T04:07:22.668Z,15.93
2023-03-04T04:09:49.527Z,16.07
2023-03-04T04:12:18.829Z,15.97
2023-03-04T04:14:45.935Z,15.30
2023-03-04T04:17:13.972Z,16.30
2023-03-04T04:19:41.179Z,15.67
2023-03-04T04:22:17.480Z,16.57
2023-03-04T04:24:44.269Z,16.70
2023-03-04T04:27:11.272Z,15.40
2023-03-04T04:29:38.385Z,16.17
2023-03-04T04:32:05.827Z,15.63
2023-03-04T04:34:32.642Z,16.13
2023-03-04T04:36:59.496Z,16.03
2023-03-04T04:39:26.355Z,15.77
2023-03-04T04:41:53.246Z,16.23
2023-03-04T04:44:20.066Z,16.07
2023-03-04T04:46:46.890Z,16.17
2023-03-04T04:49:13.671Z,16.40
2023-03-04T04:51:41.781Z,15.03
2023-03-04T04:54:08.733Z,15.60
2023-03-04T04:56:35.672Z,15.30
2023-03-04T04:59:07.452Z,16.13
2023-03-04T05:01:34.917Z,16.07
2023-03-04T05:04:01.938Z,16.60
2023-03-04T05:06:28.866Z,16.17
2023-03-04T05:08:55.880Z,16.30
2023-03-04T05:11:22.996Z,16.13
2023-03-04T05:13:50.117Z,16.67
2023-03-04T05:16:17.900Z,16.10
2023-03-04T05:18:44.890Z,15.80
2023-03-04T05:21:12.405Z,15.73
2023-03-04T05:23:41.344Z,15.17
2023-03-04T05:26:11.347Z,14.30
2023-03-04T05:28:38.191Z,14.33
2023-03-04T05:31:05.351Z,14.27
2023-03-04T05:33:32.321Z,13.77
2023-03-04T05:35:59.222Z,14.07
2023-03-04T05:38:26.319Z,14.30
2023-03-04T05:41:01.547Z,13.33
2023-03-04T05:43:30.784Z,13.70
2023-03-04T05:45:57.688Z,13.73
2023-03-04T05:48:24.477Z,12.87
2023-03-04T05:50:59.478Z,13.47
2023-03-04T05:53:26.863Z,14.73
2023-03-04T05:55:53.939Z,13.87
2023-03-04T05:58:21.818Z,13.87
2023-03-04T06:00:48.814Z,14.27
2023-03-04T06:03:20.846Z,13.53
2023-03-04T06:05:48.709Z,13.10
2023-03-04T06:08:15.523Z,13.53
2023-03-04T06:10:42.788Z,13.80
2023-03-04T06:13:10.207Z,14.63
2023-03-04T06:15:38.315Z,13.97
2023-03-04T06:18:06.372Z,13.17
2023-03-04T06:20:34.132Z,13.27
2023-03-04T06:23:01.000Z,14.13
2023-03-04T06:25:28.001Z,13.57
2023-03-04T06:27:55.293Z,13.17
2023-03-04T06:30:22.636Z,13.73
2023-03-04T06:32:49.676Z,13.40
2023-03-04T06:35:17.115Z,14.30
2023-03-04T06:37:44.081Z,14.67
2023-03-04T06:40:11.672Z,14.00
2023-03-04T06:42:40.270Z,13.10
2023-03-04T06:45:08.330Z,14.10
2023-03-04T06:47:35.380Z,13.17
2023-03-04T06:50:03.703Z,13.27
2023-03-04T06:52:31.599Z,13.33
2023-03-04T06:54:58.478Z,14.00
2023-03-04T06:57:25.290Z,14.27
2023-03-04T06:59:52.130Z,13.23
2023-03-04T07:02:18.992Z,13.20
2023-03-04T07:04:46.011Z,13.20
2023-03-04T07:07:13.731Z,13.10
2023-03-04T07:09:40.774Z,13.63
2023-03-04T07:12:07.833Z,13.57
2023-03-04T07:14:34.615Z,13.33
2023-03-04T07:17:01.468Z,12.17
2023-03-04T07:19:28.463Z,12.50
2023-03-04T07:21:55.386Z,13.00
2023-03-04T07:24:22.180Z,13.80
2023-03-04T07:26:48.948Z,13.17
2023-03-04T07:29:15.792Z,13.07
2023-03-04T07:31:42.780Z,13.03
2023-03-04T07:34:13.874Z,12.97
2023-03-04T07:36:41.833Z,12.27
2023-03-04T07:39:09.460Z,12.87
2023-03-04T07:41:37.547Z,12.30
2023-03-04T07:44:05.546Z,12.40
2023-03-04T07:46:32.991Z,12.20
2023-03-04T07:49:00.121Z,11.47
2023-03-04T07:51:30.222Z,12.50
2023-03-04T07:54:00.032Z,12.07
2023-03-04T07:56:29.979Z,11.80
2023-03-04T07:58:56.881Z,10.80
2023-03-04T08:01:29.984Z,11.87
2023-03-04T08:03:57.688Z,11.27
2023-03-04T08:06:25.893Z,12.03
2023-03-04T08:08:58.533Z,11.57
2023-03-04T08:11:27.100Z,11.93
2023-03-04T08:13:54.693Z,11.40
2023-03-04T08:16:23.554Z,12.07
2023-03-04T08:18:55.751Z,11.20
2023-03-04T08:21:24.382Z,11.70
2023-03-04T08:23:52.565Z,11.50
2023-03-04T08:26:33.921Z,11.47
2023-03-04T08:29:02.897Z,10.83
2023-03-04T08:31:29.849Z,9.70
2023-03-04T08:33:56.905Z,11.00
2023-03-04T08:36:23.783Z,10.80
2023-03-04T08:38:50.748Z,10.37
2023-03-04T08:41:17.743Z,10.30
2023-03-04T08:43:44.791Z,10.63
2023-03-04T08:46:11.934Z,10.23
2023-03-04T08:48:38.902Z,10.30
2023-03-04T08:51:14.343Z,10.23
2023-03-04T08:53:41.431Z,10.43
2023-03-04T08:56:09.386Z,11.00
2023-03-04T08:58:36.267Z,10.70
2023-03-04T09:01:04.462Z,9.73
2023-03-04T09:03:31.337Z,10.93
2023-03-04T09:05:58.272Z,10.93
2023-03-04T09:08:25.376Z,10.80
2023-03-04T09:10:56.174Z,10.53
2023-03-04T09:13:26.162Z,10.53
2023-03-04T09:15:54.066Z,10.60
2023-03-04T09:18:22.825Z,9.83
2023-03-04T09:20:50.192Z,10.67
2023-03-04T09:23:17.914Z,11.00
2023-03-04T09:25:47.446Z,10.10
2023-03-04T09:28:16.291Z,10.10
2023-03-04T09:30:46.258Z,9.73
2023-03-04T09:33:13.670Z,10.63
2023-03-04T09:35:40.740Z,9.13
2023-03-04T09:38:07.856Z,10.30
2023-03-04T09:40:44.034Z,9.43
2023-03-04T09:43:29.520Z,10.47
2023-03-04T09:46:00.298Z,10.27
2023-03-04T09:48:40.377Z,9.93
2023-03-04T09:51:32.605Z,10.60
2023-03-04T09:54:15.307Z,9.83
2023-03-04T09:56:42.599Z,10.30
2023-03-04T09:59:27.243Z,10.30
2023-03-04T10:01:59.589Z,10.00
2023-03-04T10:04:47.322Z,10.57
2023-03-04T10:07:29.694Z,9.73
2023-03-04T10:10:02.878Z,10.27
2023-03-04T10:12:35.861Z,10.17
2023-03-04T10:15:07.213Z,10.67
2023-03-04T10:17:51.729Z,9.83
2023-03-04T10:20:23.666Z,9.87
2023-03-04T10:22:53.454Z,9.83
2023-03-04T10:25:29.984Z,11.32
2023-03-04T10:28:05.053Z,9.77
2023-03-04T10:30:34.872Z,10.20
2023-03-04T10:33:02.786Z,9.57
2023-03-04T10:35:37.558Z,9.10
2023-03-04T10:38:04.878Z,8.93
2023-03-04T10:40:38.199Z,9.13
2023-03-04T10:43:08.166Z,9.70
2023-03-04T10:45:39.779Z,9.30
2023-03-04T10:48:16.790Z,9.27
2023-03-04T10:50:43.620Z,9.27
2023-03-04T10:53:36.672Z,9.43
2023-03-04T10:56:03.786Z,9.13
2023-03-04T10:58:30.763Z,9.07
2023-03-04T11:01:03.817Z,8.73
2023-03-04T11:03:36.622Z,9.17
2023-03-04T11:06:17.627Z,9.57
2023-03-04T11:08:45.064Z,9.43
2023-03-04T11:11:46.042Z,9.47
2023-03-04T11:14:19.876Z,9.80
2023-03-04T11:16:55.655Z,8.65
2023-03-04T11:19:37.546Z,9.67
2023-03-04T11:22:05.401Z,8.80
2023-03-04T11:24:38.665Z,8.97
2023-03-04T11:27:11.588Z,8.43
2023-03-04T11:29:44.076Z,9.20
2023-03-04T11:32:42.089Z,8.80
2023-03-04T11:35:49.522Z,9.10
2023-03-04T11:38:16.394Z,8.60
2023-03-04T11:40:47.590Z,7.90
2023-03-04T11:43:40.014Z,8.40
2023-03-04T11:46:25.877Z,8.47
2023-03-04T11:48:57.041Z,8.17
2023-03-04T11:51:52.470Z,8.80
2023-03-04T11:54:46.375Z,8.87
2023-03-04T11:57:37.235Z,8.47
2023-03-04T12:00:16.198Z,9.00
2023-03-04T12:03:02.975Z,9.17
2023-03-04T12:05:48.205Z,8.80
2023-03-04T12:08:33.146Z,9.10
2023-03-04T12:11:02.642Z,9.00
2023-03-04T12:13:57.010Z,9.37
2023-03-04T12:17:10.540Z,9.50
2023-03-04T12:20:08.771Z,10.23
2023-03-04T12:22:45.173Z,10.23
2023-03-04T12:25:30.654Z,9.87
2023-03-04T12:28:21.401Z,9.40
2023-03-04T12:31:01.715Z,10.40
2023-03-04T12:33:46.794Z,10.30
2023-03-04T12:36:37.530Z,11.03
2023-03-04T12:39:31.020Z,11.03
2023-03-04T12:42:30.523Z,12.10
2023-03-04T12:45:15.861Z,11.53
2023-03-04T12:48:11.201Z,12.73
2023-03-04T12:50:48.553Z,12.53
2023-03-04T12:53:30.379Z,12.40
2023-03-04T12:55:59.512Z,12.33
2023-03-04T12:58:29.849Z,11.77
2023-03-04T13:01:16.862Z,11.47
2023-03-04T13:03:59.602Z,11.10
2023-03-04T13:06:47.910Z,11.07
2023-03-04T13:09:32.898Z,11.43
2023-03-04T13:12:16.045Z,11.13
2023-03-04T13:15:08.648Z,10.50
2023-03-04T13:17:58.044Z,10.10
2023-03-04T13:20:32.284Z,9.53
2023-03-04T13:23:06.027Z,10.07
2023-03-04T13:25:35.887Z,10.73
2023-03-04T13:28:05.364Z,10.57
2023-03-04T13:30:33.276Z,10.77
2023-03-04T13:33:14.866Z,11.90
2023-03-04T13:36:04.230Z,13.00
2023-03-04T13:38:31.305Z,12.00
2023-03-04T13:41:15.463Z,12.90
2023-03-04T13:43:55.297Z,11.37
2023-03-04T13:46:26.961Z,11.37
2023-03-04T13:48:57.289Z,11.03
2023-03-04T13:51:32.876Z,9.43
2023-03-04T13:53:59.628Z,9.50
2023-03-04T13:56:51.122Z,8.50
2023-03-04T13:59:27.437Z,8.63
2023-03-04T14:02:12.582Z,7.27
2023-03-04T14:04:42.395Z,5.80
2023-03-04T14:07:30.121Z,3.90
2023-03-04T14:09:58.692Z,4.30
2023-03-04T14:12:27.986Z,5.03
2023-03-04T14:15:01.013Z,5.27
2023-03-04T14:17:39.304Z,4.90
2023-03-04T14:20:25.853Z,4.20
2023-03-04T14:22:53.318Z,3.17
2023-03-04T14:25:24.905Z,3.00
2023-03-04T14:28:03.098Z,2.47
2023-03-04T14:30:42.253Z,2.30
2023-03-04T14:33:17.780Z,2.40
2023-03-04T14:35:50.611Z,1.93
2023-03-04T14:38:32.337Z,2.30
2023-03-04T14:41:02.726Z,2.50
2023-03-04T14:43:31.142Z,2.33
2023-03-04T14:45:59.664Z,2.20
2023-03-04T14:48:33.657Z,2.20
2023-03-04T14:51:02.407Z,2.20
2023-03-04T14:53:31.747Z,2.23
2023-03-04T14:56:08.359Z,2.23
2023-03-04T14:58:37.008Z,2.07
2023-03-04T15:01:17.561Z,2.20
2023-03-04T15:03:54.381Z,2.10
2023-03-04T15:06:23.948Z,2.00
2023-03-04T15:09:09.259Z,1.90
2023-03-04T15:11:51.754Z,1.80
2023-03-04T15:14:47.990Z,1.90
2023-03-04T15:17:42.963Z,1.77
2023-03-04T15:20:09.844Z,1.90
2023-03-04T15:22:55.919Z,2.23
2023-03-04T15:25:24.413Z,1.87
2023-03-04T15:27:51.920Z,1.80
2023-03-04T15:30:27.568Z,1.80
2023-03-04T15:32:58.649Z,1.50
2023-03-04T15:35:29.124Z,1.40
2023-03-04T15:37:57.758Z,1.10
2023-03-04T15:40:33.766Z,1.20
2023-03-04T15:43:03.197Z,1.00
2023-03-04T15:45:32.922Z,1.37
2023-03-04T15:47:59.760Z,1.20
2023-03-04T15:50:30.139Z,1.23
2023-03-04T15:53:02.143Z,1.33
2023-03-04T15:55:30.993Z,1.37
2023-03-04T15:58:01.437Z,1.40
2023-03-04T16:00:32.520Z,1.27
2023-03-04T16:03:02.208Z,1.30
2023-03-04T16:05:29.081Z,1.60
2023-03-04T16:07:56.106Z,1.60
2023-03-04T16:10:27.693Z,1.30
2023-03-04T16:12:55.087Z,1.40
2023-03-04T16:15:24.848Z,1.43
2023-03-04T16:17:52.980Z,1.43
2023-03-04T16:20:23.002Z,1.47
2023-03-04T16:22:54.361Z,1.30
2023-03-04T16:25:22.177Z,1.63
2023-03-04T16:27:51.346Z,1.53
2023-03-04T16:30:21.927Z,1.37
2023-03-04T16:32:48.938Z,1.43
2023-03-04T16:35:19.722Z,1.50
2023-03-04T16:37:48.695Z,1.47
2023-03-04T16:40:24.070Z,1.40
2023-03-04T16:42:51.087Z,1.30
2023-03-04T16:45:21.027Z,1.33
2023-03-04T16:47:48.130Z,1.10
2023-03-04T16:50:21.071Z,1.20
2023-03-04T16:52:49.510Z,1.30
2023-03-04T16:55:20.416Z,1.13
2023-03-04T16:57:48.213Z,1.10
2023-03-04T17:00:17.488Z,1.20
2023-03-04T17:02:46.143Z,1.10
2023-03-04T17:05:18.411Z,1.00
2023-03-04T17:07:46.164Z,1.30
2023-03-04T17:10:14.693Z,1.30
2023-03-04T17:12:42.150Z,1.10
2023-03-04T17:15:13.770Z,1.30
2023-03-04T17:17:41.569Z,1.37
2023-03-04T17:20:11.254Z,1.50
2023-03-04T17:22:38.097Z,1.43
2023-03-04T17:25:05.461Z,1.43
2023-03-04T17:27:32.486Z,1.40
2023-03-04T17:30:00.123Z,1.20
2023-03-04T17:32:34.342Z,1.20
2023-03-04T17:35:03.125Z,1.30
2023-03-04T17:37:31.644Z,1.47
2023-03-04T17:39:58.839Z,1.70
2023-03-04T17:42:27.305Z,1.40
2023-03-04T17:44:54.116Z,1.20
2023-03-04T17:47:22.686Z,1.37
2023-03-04T17:49:52.232Z,1.20
2023-03-04T17:52:19.635Z,1.20
2023-03-04T17:54:46.967Z,1.60
2023-03-04T17:57:14.009Z,1.23
2023-03-04T17:59:40.851Z,1.30
2023-03-04T18:02:15.596Z,1.40
2023-03-04T18:04:45.181Z,1.10
2023-03-04T18:07:12.029Z,1.07
2023-03-04T18:09:39.908Z,1.43
2023-03-04T18:12:07.177Z,1.10
2023-03-04T18:14:34.316Z,1.20
2023-03-04T18:17:01.142Z,1.10
2023-03-04T18:19:28.694Z,0.90
2023-03-04T18:21:55.450Z,1.00
2023-03-04T18:24:22.349Z,1.10
2023-03-04T18:26:49.437Z,1.10
2023-03-04T18:29:16.299Z,1.03
2023-03-04T18:31:43.544Z,1.40
2023-03-04T18:34:11.854Z,1.10
2023-03-04T18:36:38.730Z,1.27
2023-03-04T18:39:07.406Z,1.23
2023-03-04T18:41:34.409Z,1.20
2023-03-04T18:44:01.363Z,1.20
2023-03-04T18:46:52.130Z,1.40
2023-03-04T18:49:22.091Z,1.27
2023-03-04T18:51:49.229Z,1.20
2023-03-04T18:54:16.093Z,1.20
2023-03-04T18:56:50.688Z,1.30
2023-03-04T18:59:24.284Z,1.10
2023-03-04T19:01:52.996Z,1.13
2023-03-04T19:04:22.937Z,1.20
2023-03-04T19:06:50.061Z,1.10
2023-03-04T19:09:16.916Z,1.00
2023-03-04T19:11:47.327Z,1.20
2023-03-04T19:14:14.317Z,1.27
2023-03-04T19:16:41.643Z,1.20
2023-03-04T19:19:09.005Z,1.13
2023-03-04T19:21:40.465Z,1.20
2023-03-04T19:24:08.021Z,1.30
2023-03-04T19:26:35.669Z,1.20
2023-03-04T19:29:02.590Z,1.50
2023-03-04T19:31:29.792Z,1.50
2023-03-04T19:33:57.251Z,1.50
2023-03-04T19:36:25.521Z,1.50
2023-03-04T19:38:52.309Z,1.40
2023-03-04T19:41:19.652Z,1.30
2023-03-04T19:43:46.463Z,1.17
2023-03-04T19:46:14.228Z,1.37
2023-03-04T19:48:47.070Z,1.37
2023-03-04T19:51:20.069Z,1.20
2023-03-04T19:53:48.011Z,1.30
2023-03-04T19:56:15.372Z,1.30
2023-03-04T19:58:42.558Z,1.30
2023-03-04T20:01:34.780Z,1.40
2023-03-04T20:04:05.715Z,1.67
2023-03-04T20:06:36.755Z,1.50
2023-03-04T20:09:03.880Z,1.50
2023-03-04T20:11:39.243Z,1.43
2023-03-04T20:14:11.019Z,1.77
2023-03-04T20:16:37.971Z,1.57
2023-03-04T20:19:04.803Z,1.40
2023-03-04T20:21:33.473Z,1.80
2023-03-04T20:24:01.607Z,1.90
2023-03-04T20:26:31.287Z,1.80
2023-03-04T20:29:03.293Z,2.07
2023-03-04T20:31:32.397Z,2.20
2023-03-04T20:33:59.991Z,2.03
2023-03-04T20:36:31.083Z,1.90
2023-03-04T20:39:02.576Z,1.90
2023-03-04T20:41:32.201Z,2.10
2023-03-04T20:43:59.209Z,2.13
2023-03-04T20:46:42.968Z,2.00
2023-03-04T20:49:32.795Z,1.90
2023-03-04T20:52:08.051Z,1.60
2023-03-04T20:54:37.425Z,1.73
2023-03-04T20:57:08.105Z,1.87
2023-03-04T20:59:36.190Z,1.70
2023-03-04T21:02:03.057Z,1.80
2023-03-04T21:04:32.540Z,2.20
2023-03-04T21:07:01.486Z,2.00
2023-03-04T21:09:29.253Z,2.00
2023-03-04T21:11:56.528Z,1.80
2023-03-04T21:14:25.914Z,1.87
2023-03-04T21:17:00.861Z,1.87
2023-03-04T21:19:33.731Z,2.50
2023-03-04T21:22:01.729Z,2.03
2023-03-04T21:24:32.496Z,1.80
2023-03-04T21:26:59.626Z,1.53
2023-03-04T21:29:30.777Z,1.67
2023-03-04T21:32:23.877Z,1.50
2023-03-04T21:34:55.708Z,1.80
2023-03-04T21:37:24.923Z,1.77
2023-03-04T21:39:52.219Z,1.80
2023-03-04T21:42:22.844Z,1.87
2023-03-04T21:44:53.057Z,2.10
2023-03-04T21:47:21.723Z,1.73
2023-03-04T21:49:49.547Z,1.90
2023-03-04T21:52:20.614Z,1.90
2023-03-04T21:54:48.087Z,1.90
2023-03-04T21:57:15.669Z,2.00
2023-03-04T21:59:42.449Z,2.07
2023-03-04T22:02:18.307Z,1.70
2023-03-04T22:04:45.228Z,1.80
2023-03-04T22:07:12.912Z,1.93
2023-03-04T22:09:39.890Z,2.07
2023-03-04T22:12:06.913Z,2.20
2023-03-04T22:14:33.831Z,2.30
2023-03-04T22:17:00.726Z,2.37
2023-03-04T22:19:31.736Z,2.30
2023-03-04T22:22:01.026Z,2.43
2023-03-04T22:24:27.967Z,2.57
2023-03-04T22:26:56.902Z,2.43
2023-03-04T22:29:24.019Z,2.73
2023-03-04T22:31:51.276Z,2.40
2023-03-04T22:34:19.673Z,2.60
2023-03-04T22:36:47.199Z,2.80
2023-03-04T22:42:11.487Z,2.63
2023-03-04T22:45:13.802Z,2.60
2023-03-04T22:47:58.810Z,2.60
2023-03-04T22:50:30.202Z,2.70
2023-03-04T22:52:57.188Z,2.87
2023-03-04T22:55:24.328Z,3.10
2023-03-04T22:57:51.173Z,3.20
2023-03-04T23:00:26.580Z,3.30
2023-03-04T23:02:54.064Z,3.57
2023-03-04T23:05:23.126Z,4.30
2023-03-04T23:07:51.561Z,4.60
2023-03-04T23:10:22.173Z,3.87
2023-03-04T23:12:49.550Z,4.00
2023-03-04T23:15:18.124Z,3.87
2023-03-04T23:17:45.250Z,3.77
2023-03-04T23:20:18.938Z,3.73
2023-03-04T23:22:47.143Z,4.00
2023-03-04T23:25:15.155Z,3.63
2023-03-04T23:27:42.363Z,4.20
2023-03-04T23:30:15.352Z,4.23
2023-03-04T23:32:43.161Z,4.13
2023-03-04T23:35:10.126Z,3.93
2023-03-04T23:37:37.039Z,4.47
2023-03-04T23:40:04.302Z,4.77
2023-03-04T23:42:31.297Z,4.70
2023-03-04T23:44:58.223Z,4.53
2023-03-04T23:47:25.133Z,4.70
2023-03-04T23:49:52.152Z,4.60
2023-03-04T23:52:19.011Z,4.63
2023-03-04T23:54:48.558Z,4.67
2023-03-04T23:57:15.427Z,4.10
2023-03-04T23:59:42.183Z,4.30
